sensor_id;sensor_type;location;lat;lon;timestamp;P1;durP1;ratioP1;P2;durP2;ratioP2
19575;SDS011;41589;51.196;7.074;2022-07-06T00:00:37;0.90;;;0.90;;
19575;SDS011;41589;51.196;7.074;2022-07-06T00:05:38;1.27;;;1.00;;
19575;SDS011;41589;51.196;7.074;2022-07-06T00:10:38;1.13;;;1.03;;
19575;SDS011;41589;51.196;7.074;2022-07-06T00:15:39;1.60;;;0.93;;
19575;SDS011;41589;51.196;7.074;2022-07-06T00:20:40;1.50;;;1.10;;
19575;SDS011;41589;51.196;7.074;2022-07-06T00:25:41;2.13;;;1.10;;
19575;SDS011;41589;51.196;7.074;2022-07-06T00:30:41;1.40;;;1.30;;
19575;SDS011;41589;51.196;7.074;2022-07-06T00:35:42;1.00;;;1.00;;
19575;SDS011;41589;51.196;7.074;2022-07-06T00:40:43;1.10;;;1.03;;
19575;SDS011;41589;51.196;7.074;2022-07-06T00:45:43;3.03;;;2.07;;
19575;SDS011;41589;51.196;7.074;2022-07-06T00:50:44;1.20;;;1.10;;
19575;SDS011;41589;51.196;7.074;2022-07-06T00:55:45;1.23;;;1.13;;
19575;SDS011;41589;51.196;7.074;2022-07-06T01:00:45;1.97;;;1.13;;
19575;SDS011;41589;51.196;7.074;2022-07-06T01:05:45;1.23;;;1.07;;
19575;SDS011;41589;51.196;7.074;2022-07-06T01:10:46;1.30;;;1.20;;
19575;SDS011;41589;51.196;7.074;2022-07-06T01:15:47;1.00;;;1.00;;
19575;SDS011;41589;51.196;7.074;2022-07-06T01:20:47;2.37;;;1.00;;
19575;SDS011;41589;51.196;7.074;2022-07-06T01:25:48;0.93;;;0.90;;
19575;SDS011;41589;51.196;7.074;2022-07-06T01:30:48;1.20;;;1.10;;
19575;SDS011;41589;51.196;7.074;2022-07-06T01:35:49;1.47;;;1.20;;
19575;SDS011;41589;51.196;7.074;2022-07-06T01:40:50;1.50;;;1.10;;
19575;SDS011;41589;51.196;7.074;2022-07-06T01:45:51;1.43;;;1.13;;
19575;SDS011;41589;51.196;7.074;2022-07-06T01:50:51;1.13;;;1.03;;
19575;SDS011;41589;51.196;7.074;2022-07-06T01:55:52;1.03;;;1.03;;
19575;SDS011;41589;51.196;7.074;2022-07-06T02:00:53;1.30;;;1.20;;
19575;SDS011;41589;51.196;7.074;2022-07-06T02:05:53;0.93;;;0.93;;
19575;SDS011;41589;51.196;7.074;2022-07-06T02:10:55;1.00;;;1.00;;
19575;SDS011;41589;51.196;7.074;2022-07-06T02:15:56;1.63;;;1.20;;
19575;SDS011;41589;51.196;7.074;2022-07-06T02:20:56;0.90;;;0.90;;
19575;SDS011;41589;51.196;7.074;2022-07-06T02:25:57;1.03;;;0.93;;
19575;SDS011;41589;51.196;7.074;2022-07-06T02:30:58;2.10;;;1.10;;
19575;SDS011;41589;51.196;7.074;2022-07-06T02:36:01;1.43;;;1.00;;
19575;SDS011;41589;51.196;7.074;2022-07-06T02:41:02;1.03;;;0.93;;
19575;SDS011;41589;51.196;7.074;2022-07-06T02:46:03;1.63;;;1.10;;
19575;SDS011;41589;51.196;7.074;2022-07-06T02:51:03;1.07;;;0.97;;
19575;SDS011;41589;51.196;7.074;2022-07-06T02:56:04;1.87;;;1.00;;
19575;SDS011;41589;51.196;7.074;2022-07-06T03:01:07;1.10;;;1.00;;
19575;SDS011;41589;51.196;7.074;2022-07-06T03:06:09;1.23;;;1.13;;
19575;SDS011;41589;51.196;7.074;2022-07-06T03:11:10;1.13;;;1.00;;
19575;SDS011;41589;51.196;7.074;2022-07-06T03:16:11;2.40;;;1.20;;
19575;SDS011;41589;51.196;7.074;2022-07-06T03:21:12;2.30;;;1.20;;
19575;SDS011;41589;51.196;7.074;2022-07-06T03:26:13;1.00;;;1.00;;
19575;SDS011;41589;51.196;7.074;2022-07-06T03:31:13;1.20;;;1.10;;
19575;SDS011;41589;51.196;7.074;2022-07-06T03:36:14;1.20;;;1.20;;
19575;SDS011;41589;51.196;7.074;2022-07-06T03:41:16;1.13;;;1.13;;
19575;SDS011;41589;51.196;7.074;2022-07-06T03:46:16;1.57;;;1.20;;
19575;SDS011;41589;51.196;7.074;2022-07-06T03:51:17;1.30;;;1.20;;
19575;SDS011;41589;51.196;7.074;2022-07-06T03:56:18;1.23;;;1.13;;
19575;SDS011;41589;51.196;7.074;2022-07-06T04:01:38;1.77;;;1.67;;
19575;SDS011;41589;51.196;7.074;2022-07-06T04:06:39;1.53;;;1.43;;
19575;SDS011;41589;51.196;7.074;2022-07-06T04:11:40;1.10;;;1.10;;
19575;SDS011;41589;51.196;7.074;2022-07-06T04:16:42;1.90;;;1.50;;
19575;SDS011;41589;51.196;7.074;2022-07-06T04:21:43;1.57;;;1.17;;
19575;SDS011;41589;51.196;7.074;2022-07-06T04:26:43;1.97;;;1.13;;
19575;SDS011;41589;51.196;7.074;2022-07-06T04:31:44;1.40;;;1.30;;
19575;SDS011;41589;51.196;7.074;2022-07-06T04:36:45;1.50;;;1.40;;
19575;SDS011;41589;51.196;7.074;2022-07-06T04:41:46;2.30;;;1.47;;
19575;SDS011;41589;51.196;7.074;2022-07-06T04:46:46;1.60;;;1.50;;
19575;SDS011;41589;51.196;7.074;2022-07-06T04:51:47;2.73;;;2.10;;
19575;SDS011;41589;51.196;7.074;2022-07-06T04:56:48;2.80;;;1.60;;
19575;SDS011;41589;51.196;7.074;2022-07-06T05:01:49;1.60;;;1.50;;
19575;SDS011;41589;51.196;7.074;2022-07-06T05:06:50;1.87;;;1.73;;
19575;SDS011;41589;51.196;7.074;2022-07-06T05:11:50;1.87;;;1.63;;
19575;SDS011;41589;51.196;7.074;2022-07-06T05:16:51;2.07;;;1.60;;
19575;SDS011;41589;51.196;7.074;2022-07-06T05:21:52;1.80;;;1.70;;
19575;SDS011;41589;51.196;7.074;2022-07-06T05:26:52;1.70;;;1.60;;
19575;SDS011;41589;51.196;7.074;2022-07-06T05:31:53;1.63;;;1.40;;
19575;SDS011;41589;51.196;7.074;2022-07-06T05:36:54;1.70;;;1.60;;
19575;SDS011;41589;51.196;7.074;2022-07-06T05:41:54;2.33;;;1.93;;
19575;SDS011;41589;51.196;7.074;2022-07-06T05:46:55;1.60;;;1.50;;
19575;SDS011;41589;51.196;7.074;2022-07-06T05:52:17;2.20;;;1.60;;
19575;SDS011;41589;51.196;7.074;2022-07-06T05:57:17;1.70;;;1.60;;
19575;SDS011;41589;51.196;7.074;2022-07-06T06:02:18;1.63;;;1.53;;
19575;SDS011;41589;51.196;7.074;2022-07-06T06:07:19;2.20;;;1.87;;
19575;SDS011;41589;51.196;7.074;2022-07-06T06:12:19;1.70;;;1.60;;
19575;SDS011;41589;51.196;7.074;2022-07-06T06:17:20;2.23;;;1.40;;
19575;SDS011;41589;51.196;7.074;2022-07-06T06:22:20;1.63;;;1.47;;
19575;SDS011;41589;51.196;7.074;2022-07-06T06:27:21;2.47;;;1.80;;
19575;SDS011;41589;51.196;7.074;2022-07-06T06:32:21;2.37;;;1.50;;
19575;SDS011;41589;51.196;7.074;2022-07-06T06:37:22;2.30;;;1.40;;
19575;SDS011;41589;51.196;7.074;2022-07-06T06:42:22;1.57;;;1.40;;
19575;SDS011;41589;51.196;7.074;2022-07-06T06:47:25;1.20;;;1.10;;
19575;SDS011;41589;51.196;7.074;2022-07-06T06:52:25;1.50;;;1.20;;
19575;SDS011;41589;51.196;7.074;2022-07-06T06:57:25;1.40;;;1.10;;
19575;SDS011;41589;51.196;7.074;2022-07-06T07:02:26;1.20;;;1.10;;
19575;SDS011;41589;51.196;7.074;2022-07-06T07:07:26;5.87;;;1.47;;
19575;SDS011;41589;51.196;7.074;2022-07-06T07:12:27;1.80;;;1.03;;
19575;SDS011;41589;51.196;7.074;2022-07-06T07:17:27;1.43;;;1.00;;
19575;SDS011;41589;51.196;7.074;2022-07-06T07:22:28;1.00;;;0.97;;
19575;SDS011;41589;51.196;7.074;2022-07-06T07:27:28;1.00;;;0.90;;
19575;SDS011;41589;51.196;7.074;2022-07-06T07:32:29;1.10;;;0.90;;
19575;SDS011;41589;51.196;7.074;2022-07-06T07:37:29;1.53;;;0.83;;
19575;SDS011;41589;51.196;7.074;2022-07-06T07:42:29;1.23;;;1.00;;
19575;SDS011;41589;51.196;7.074;2022-07-06T07:47:30;0.90;;;0.80;;
19575;SDS011;41589;51.196;7.074;2022-07-06T07:52:30;0.87;;;0.80;;
19575;SDS011;41589;51.196;7.074;2022-07-06T07:57:31;0.73;;;0.73;;
19575;SDS011;41589;51.196;7.074;2022-07-06T08:02:31;1.07;;;0.80;;
19575;SDS011;41589;51.196;7.074;2022-07-06T08:07:32;1.53;;;0.80;;
19575;SDS011;41589;51.196;7.074;2022-07-06T08:12:32;1.53;;;0.90;;
19575;SDS011;41589;51.196;7.074;2022-07-06T08:17:33;0.53;;;0.53;;
19575;SDS011;41589;51.196;7.074;2022-07-06T08:22:36;2.13;;;0.70;;
19575;SDS011;41589;51.196;7.074;2022-07-06T08:27:37;0.97;;;0.97;;
19575;SDS011;41589;51.196;7.074;2022-07-06T08:32:38;0.60;;;0.60;;
19575;SDS011;41589;51.196;7.074;2022-07-06T08:37:42;0.87;;;0.70;;
19575;SDS011;41589;51.196;7.074;2022-07-06T08:42:43;0.80;;;0.80;;
19575;SDS011;41589;51.196;7.074;2022-07-06T08:47:45;1.43;;;1.10;;
19575;SDS011;41589;51.196;7.074;2022-07-06T08:52:49;1.73;;;0.70;;
19575;SDS011;41589;51.196;7.074;2022-07-06T08:57:50;0.70;;;0.70;;
19575;SDS011;41589;51.196;7.074;2022-07-06T09:02:51;0.90;;;0.83;;
19575;SDS011;41589;51.196;7.074;2022-07-06T09:07:54;0.73;;;0.70;;
19575;SDS011;41589;51.196;7.074;2022-07-06T09:13:05;0.60;;;0.60;;
19575;SDS011;41589;51.196;7.074;2022-07-06T09:18:07;0.70;;;0.50;;
19575;SDS011;41589;51.196;7.074;2022-07-06T09:23:08;0.43;;;0.43;;
19575;SDS011;41589;51.196;7.074;2022-07-06T09:28:08;0.50;;;0.50;;
19575;SDS011;41589;51.196;7.074;2022-07-06T09:33:09;0.80;;;0.60;;
19575;SDS011;41589;51.196;7.074;2022-07-06T09:38:13;0.77;;;0.60;;
19575;SDS011;41589;51.196;7.074;2022-07-06T09:43:21;0.40;;;0.40;;
19575;SDS011;41589;51.196;7.074;2022-07-06T09:48:23;0.70;;;0.70;;
19575;SDS011;41589;51.196;7.074;2022-07-06T09:53:27;0.57;;;0.40;;
19575;SDS011;41589;51.196;7.074;2022-07-06T09:58:27;0.87;;;0.40;;
19575;SDS011;41589;51.196;7.074;2022-07-06T10:03:28;1.07;;;0.60;;
19575;SDS011;41589;51.196;7.074;2022-07-06T10:08:30;0.77;;;0.60;;
19575;SDS011;41589;51.196;7.074;2022-07-06T10:13:32;0.60;;;0.60;;
19575;SDS011;41589;51.196;7.074;2022-07-06T10:18:34;0.60;;;0.60;;
19575;SDS011;41589;51.196;7.074;2022-07-06T10:23:35;0.60;;;0.60;;
19575;SDS011;41589;51.196;7.074;2022-07-06T10:28:36;1.10;;;0.70;;
19575;SDS011;41589;51.196;7.074;2022-07-06T10:33:38;0.70;;;0.53;;
19575;SDS011;41589;51.196;7.074;2022-07-06T10:38:41;0.57;;;0.50;;
19575;SDS011;41589;51.196;7.074;2022-07-06T10:43:49;0.70;;;0.60;;
19575;SDS011;41589;51.196;7.074;2022-07-06T10:48:49;0.67;;;0.67;;
19575;SDS011;41589;51.196;7.074;2022-07-06T10:54:04;0.73;;;0.50;;
19575;SDS011;41589;51.196;7.074;2022-07-06T10:59:08;0.53;;;0.53;;
19575;SDS011;41589;51.196;7.074;2022-07-06T11:04:11;1.07;;;0.70;;
19575;SDS011;41589;51.196;7.074;2022-07-06T11:09:11;0.60;;;0.60;;
19575;SDS011;41589;51.196;7.074;2022-07-06T11:14:17;0.60;;;0.60;;
19575;SDS011;41589;51.196;7.074;2022-07-06T11:19:21;0.80;;;0.80;;
19575;SDS011;41589;51.196;7.074;2022-07-06T11:24:27;0.70;;;0.70;;
19575;SDS011;41589;51.196;7.074;2022-07-06T11:29:29;0.90;;;0.70;;
19575;SDS011;41589;51.196;7.074;2022-07-06T11:34:31;0.70;;;0.70;;
19575;SDS011;41589;51.196;7.074;2022-07-06T11:39:40;0.90;;;0.90;;
19575;SDS011;41589;51.196;7.074;2022-07-06T11:44:42;0.70;;;0.70;;
19575;SDS011;41589;51.196;7.074;2022-07-06T11:49:43;1.07;;;0.70;;
19575;SDS011;41589;51.196;7.074;2022-07-06T11:54:46;0.60;;;0.60;;
19575;SDS011;41589;51.196;7.074;2022-07-06T11:59:46;0.60;;;0.60;;
19575;SDS011;41589;51.196;7.074;2022-07-06T12:04:49;1.53;;;0.60;;
19575;SDS011;41589;51.196;7.074;2022-07-06T12:09:50;0.50;;;0.50;;
19575;SDS011;41589;51.196;7.074;2022-07-06T12:14:51;1.33;;;0.50;;
19575;SDS011;41589;51.196;7.074;2022-07-06T12:19:53;0.40;;;0.40;;
19575;SDS011;41589;51.196;7.074;2022-07-06T12:24:56;1.30;;;0.90;;
19575;SDS011;41589;51.196;7.074;2022-07-06T12:30:04;0.63;;;0.63;;
19575;SDS011;41589;51.196;7.074;2022-07-06T12:35:09;1.77;;;0.70;;
19575;SDS011;41589;51.196;7.074;2022-07-06T12:40:11;0.70;;;0.60;;
19575;SDS011;41589;51.196;7.074;2022-07-06T12:45:13;0.50;;;0.50;;
19575;SDS011;41589;51.196;7.074;2022-07-06T12:50:13;0.60;;;0.60;;
19575;SDS011;41589;51.196;7.074;2022-07-06T12:55:14;0.83;;;0.67;;
19575;SDS011;41589;51.196;7.074;2022-07-06T13:00:16;0.50;;;0.50;;
19575;SDS011;41589;51.196;7.074;2022-07-06T13:05:17;0.70;;;0.50;;
19575;SDS011;41589;51.196;7.074;2022-07-06T13:10:18;0.80;;;0.70;;
19575;SDS011;41589;51.196;7.074;2022-07-06T13:15:18;0.50;;;0.50;;
19575;SDS011;41589;51.196;7.074;2022-07-06T13:20:19;0.83;;;0.53;;
19575;SDS011;41589;51.196;7.074;2022-07-06T13:25:19;2.10;;;0.70;;
19575;SDS011;41589;51.196;7.074;2022-07-06T13:30:20;5.20;;;0.97;;
19575;SDS011;41589;51.196;7.074;2022-07-06T13:35:20;0.63;;;0.60;;
19575;SDS011;41589;51.196;7.074;2022-07-06T13:40:21;2.40;;;0.63;;
19575;SDS011;41589;51.196;7.074;2022-07-06T13:45:22;1.20;;;0.90;;
19575;SDS011;41589;51.196;7.074;2022-07-06T13:50:22;0.80;;;0.60;;
19575;SDS011;41589;51.196;7.074;2022-07-06T13:55:25;0.53;;;0.53;;
19575;SDS011;41589;51.196;7.074;2022-07-06T14:00:26;1.03;;;0.60;;
19575;SDS011;41589;51.196;7.074;2022-07-06T14:05:28;1.10;;;0.50;;
19575;SDS011;41589;51.196;7.074;2022-07-06T14:10:29;0.50;;;0.50;;
19575;SDS011;41589;51.196;7.074;2022-07-06T14:15:30;0.53;;;0.53;;
19575;SDS011;41589;51.196;7.074;2022-07-06T14:20:30;1.60;;;0.80;;
19575;SDS011;41589;51.196;7.074;2022-07-06T14:25:31;1.13;;;0.60;;
19575;SDS011;41589;51.196;7.074;2022-07-06T14:30:35;0.83;;;0.80;;
19575;SDS011;41589;51.196;7.074;2022-07-06T14:35:40;0.60;;;0.60;;
19575;SDS011;41589;51.196;7.074;2022-07-06T14:40:42;0.70;;;0.50;;
19575;SDS011;41589;51.196;7.074;2022-07-06T14:45:44;1.03;;;0.67;;
19575;SDS011;41589;51.196;7.074;2022-07-06T14:50:45;1.53;;;0.80;;
19575;SDS011;41589;51.196;7.074;2022-07-06T14:55:46;0.50;;;0.50;;
19575;SDS011;41589;51.196;7.074;2022-07-06T15:00:47;0.57;;;0.57;;
19575;SDS011;41589;51.196;7.074;2022-07-06T15:05:47;0.50;;;0.50;;
19575;SDS011;41589;51.196;7.074;2022-07-06T15:10:48;0.60;;;0.60;;
19575;SDS011;41589;51.196;7.074;2022-07-06T15:15:49;0.50;;;0.50;;
19575;SDS011;41589;51.196;7.074;2022-07-06T15:20:49;0.70;;;0.50;;
19575;SDS011;41589;51.196;7.074;2022-07-06T15:25:50;0.60;;;0.60;;
19575;SDS011;41589;51.196;7.074;2022-07-06T15:30:50;1.93;;;0.87;;
19575;SDS011;41589;51.196;7.074;2022-07-06T15:35:51;0.40;;;0.40;;
19575;SDS011;41589;51.196;7.074;2022-07-06T15:40:51;0.83;;;0.60;;
19575;SDS011;41589;51.196;7.074;2022-07-06T15:46:03;1.27;;;0.60;;
19575;SDS011;41589;51.196;7.074;2022-07-06T15:51:04;0.60;;;0.60;;
19575;SDS011;41589;51.196;7.074;2022-07-06T15:56:05;0.77;;;0.77;;
19575;SDS011;41589;51.196;7.074;2022-07-06T16:01:05;0.97;;;0.67;;
19575;SDS011;41589;51.196;7.074;2022-07-06T16:06:06;1.33;;;0.67;;
19575;SDS011;41589;51.196;7.074;2022-07-06T16:11:08;1.53;;;0.60;;
19575;SDS011;41589;51.196;7.074;2022-07-06T16:16:09;0.70;;;0.50;;
19575;SDS011;41589;51.196;7.074;2022-07-06T16:21:10;1.57;;;0.50;;
19575;SDS011;41589;51.196;7.074;2022-07-06T16:26:11;0.60;;;0.60;;
19575;SDS011;41589;51.196;7.074;2022-07-06T16:31:11;0.53;;;0.53;;
19575;SDS011;41589;51.196;7.074;2022-07-06T16:36:12;0.70;;;0.57;;
19575;SDS011;41589;51.196;7.074;2022-07-06T16:41:18;0.53;;;0.50;;
19575;SDS011;41589;51.196;7.074;2022-07-06T16:46:54;0.50;;;0.50;;
19575;SDS011;41589;51.196;7.074;2022-07-06T16:51:54;0.93;;;0.80;;
19575;SDS011;41589;51.196;7.074;2022-07-06T16:56:54;1.63;;;0.63;;
19575;SDS011;41589;51.196;7.074;2022-07-06T17:01:55;0.80;;;0.80;;
19575;SDS011;41589;51.196;7.074;2022-07-06T17:06:56;0.60;;;0.57;;
19575;SDS011;41589;51.196;7.074;2022-07-06T17:11:56;0.57;;;0.50;;
19575;SDS011;41589;51.196;7.074;2022-07-06T17:16:56;0.93;;;0.50;;
19575;SDS011;41589;51.196;7.074;2022-07-06T17:22:02;0.67;;;0.53;;
19575;SDS011;41589;51.196;7.074;2022-07-06T17:27:06;0.90;;;0.60;;
19575;SDS011;41589;51.196;7.074;2022-07-06T17:32:06;2.07;;;0.80;;
19575;SDS011;41589;51.196;7.074;2022-07-06T17:37:07;0.80;;;0.80;;
19575;SDS011;41589;51.196;7.074;2022-07-06T17:42:09;0.50;;;0.50;;
19575;SDS011;41589;51.196;7.074;2022-07-06T17:47:10;0.80;;;0.70;;
19575;SDS011;41589;51.196;7.074;2022-07-06T17:52:10;1.30;;;0.60;;
19575;SDS011;41589;51.196;7.074;2022-07-06T17:57:18;1.53;;;0.60;;
19575;SDS011;41589;51.196;7.074;2022-07-06T18:02:19;0.70;;;0.63;;
19575;SDS011;41589;51.196;7.074;2022-07-06T18:07:19;0.80;;;0.70;;
19575;SDS011;41589;51.196;7.074;2022-07-06T18:12:20;0.53;;;0.50;;
19575;SDS011;41589;51.196;7.074;2022-07-06T18:17:22;0.60;;;0.60;;
19575;SDS011;41589;51.196;7.074;2022-07-06T18:22:24;1.03;;;0.57;;
19575;SDS011;41589;51.196;7.074;2022-07-06T18:27:25;0.80;;;0.57;;
19575;SDS011;41589;51.196;7.074;2022-07-06T18:32:26;0.67;;;0.60;;
19575;SDS011;41589;51.196;7.074;2022-07-06T18:37:26;2.17;;;0.70;;
19575;SDS011;41589;51.196;7.074;2022-07-06T18:42:27;0.70;;;0.60;;
19575;SDS011;41589;51.196;7.074;2022-07-06T18:47:27;1.17;;;0.73;;
19575;SDS011;41589;51.196;7.074;2022-07-06T18:52:31;1.20;;;0.60;;
19575;SDS011;41589;51.196;7.074;2022-07-06T18:57:34;0.70;;;0.70;;
19575;SDS011;41589;51.196;7.074;2022-07-06T19:02:35;0.70;;;0.57;;
19575;SDS011;41589;51.196;7.074;2022-07-06T19:07:35;2.83;;;0.80;;
19575;SDS011;41589;51.196;7.074;2022-07-06T19:12:36;0.50;;;0.50;;
19575;SDS011;41589;51.196;7.074;2022-07-06T19:17:38;0.80;;;0.50;;
19575;SDS011;41589;51.196;7.074;2022-07-06T19:22:40;0.57;;;0.57;;
19575;SDS011;41589;51.196;7.074;2022-07-06T19:27:41;1.90;;;0.63;;
19575;SDS011;41589;51.196;7.074;2022-07-06T19:32:41;1.10;;;0.60;;
19575;SDS011;41589;51.196;7.074;2022-07-06T19:37:42;0.60;;;0.60;;
19575;SDS011;41589;51.196;7.074;2022-07-06T19:42:42;0.60;;;0.60;;
19575;SDS011;41589;51.196;7.074;2022-07-06T19:47:43;0.73;;;0.50;;
19575;SDS011;41589;51.196;7.074;2022-07-06T19:52:43;0.80;;;0.80;;
19575;SDS011;41589;51.196;7.074;2022-07-06T19:57:44;1.27;;;0.70;;
19575;SDS011;41589;51.196;7.074;2022-07-06T20:02:44;0.83;;;0.60;;
19575;SDS011;41589;51.196;7.074;2022-07-06T20:07:44;0.60;;;0.60;;
19575;SDS011;41589;51.196;7.074;2022-07-06T20:12:45;0.90;;;0.60;;
19575;SDS011;41589;51.196;7.074;2022-07-06T20:17:45;0.70;;;0.70;;
19575;SDS011;41589;51.196;7.074;2022-07-06T20:22:45;0.80;;;0.70;;
19575;SDS011;41589;51.196;7.074;2022-07-06T20:27:46;1.00;;;0.70;;
19575;SDS011;41589;51.196;7.074;2022-07-06T20:32:46;0.83;;;0.80;;
19575;SDS011;41589;51.196;7.074;2022-07-06T20:37:47;1.00;;;0.67;;
19575;SDS011;41589;51.196;7.074;2022-07-06T20:42:47;1.50;;;0.70;;
19575;SDS011;41589;51.196;7.074;2022-07-06T20:47:49;0.83;;;0.80;;
19575;SDS011;41589;51.196;7.074;2022-07-06T20:52:50;1.00;;;0.70;;
19575;SDS011;41589;51.196;7.074;2022-07-06T20:57:50;0.73;;;0.73;;
19575;SDS011;41589;51.196;7.074;2022-07-06T21:02:50;1.13;;;0.70;;
19575;SDS011;41589;51.196;7.074;2022-07-06T21:07:51;0.97;;;0.80;;
19575;SDS011;41589;51.196;7.074;2022-07-06T21:12:51;0.80;;;0.80;;
19575;SDS011;41589;51.196;7.074;2022-07-06T21:17:52;1.53;;;0.70;;
19575;SDS011;41589;51.196;7.074;2022-07-06T21:22:52;1.00;;;0.60;;
19575;SDS011;41589;51.196;7.074;2022-07-06T21:27:53;0.70;;;0.70;;
19575;SDS011;41589;51.196;7.074;2022-07-06T21:32:53;1.63;;;0.80;;
19575;SDS011;41589;51.196;7.074;2022-07-06T21:37:53;1.50;;;0.80;;
19575;SDS011;41589;51.196;7.074;2022-07-06T21:42:54;2.83;;;1.40;;
19575;SDS011;41589;51.196;7.074;2022-07-06T21:47:54;1.83;;;0.80;;
19575;SDS011;41589;51.196;7.074;2022-07-06T21:52:54;0.90;;;0.77;;
19575;SDS011;41589;51.196;7.074;2022-07-06T21:57:55;0.70;;;0.70;;
19575;SDS011;41589;51.196;7.074;2022-07-06T22:02:55;0.80;;;0.80;;
19575;SDS011;41589;51.196;7.074;2022-07-06T22:07:56;1.07;;;0.80;;
19575;SDS011;41589;51.196;7.074;2022-07-06T22:12:57;0.90;;;0.80;;
19575;SDS011;41589;51.196;7.074;2022-07-06T22:17:57;1.10;;;0.90;;
19575;SDS011;41589;51.196;7.074;2022-07-06T22:22:57;0.70;;;0.70;;
19575;SDS011;41589;51.196;7.074;2022-07-06T22:27:59;0.80;;;0.80;;
19575;SDS011;41589;51.196;7.074;2022-07-06T22:32:59;1.50;;;0.73;;
19575;SDS011;41589;51.196;7.074;2022-07-06T22:37:59;0.73;;;0.73;;
19575;SDS011;41589;51.196;7.074;2022-07-06T22:43:00;0.70;;;0.70;;
19575;SDS011;41589;51.196;7.074;2022-07-06T22:48:00;0.70;;;0.70;;
19575;SDS011;41589;51.196;7.074;2022-07-06T22:53:00;0.73;;;0.73;;
19575;SDS011;41589;51.196;7.074;2022-07-06T22:58:01;1.10;;;0.80;;
19575;SDS011;41589;51.196;7.074;2022-07-06T23:03:01;0.90;;;0.90;;
19575;SDS011;41589;51.196;7.074;2022-07-06T23:08:02;0.70;;;0.70;;
19575;SDS011;41589;51.196;7.074;2022-07-06T23:13:03;1.20;;;1.10;;
19575;SDS011;41589;51.196;7.074;2022-07-06T23:18:03;1.10;;;0.97;;
19575;SDS011;41589;51.196;7.074;2022-07-06T23:23:03;1.40;;;1.30;;
19575;SDS011;41589;51.196;7.074;2022-07-06T23:28:04;1.80;;;1.50;;
19575;SDS011;41589;51.196;7.074;2022-07-06T23:33:04;4.93;;;1.50;;
19575;SDS011;41589;51.196;7.074;2022-07-06T23:38:05;2.53;;;1.30;;
19575;SDS011;41589;51.196;7.074;2022-07-06T23:43:06;2.40;;;1.30;;
19575;SDS011;41589;51.196;7.074;2022-07-06T23:48:06;7.77;;;1.70;;
19575;SDS011;41589;51.196;7.074;2022-07-06T23:53:07;3.77;;;1.50;;
19575;SDS011;41589;51.196;7.074;2022-07-06T23:58:07;2.23;;;1.40;;
